createdAt,value
2023-11-10T12:18:12.962Z,50.00
2023-11-10T12:19:15.392Z,50.00
2023-11-10T12:20:37.921Z,50.00
2023-11-10T12:21:30.469Z,50.00
2023-11-10T12:22:30.568Z,50.00
2023-11-10T12:24:06.923Z,50.00
2023-11-10T15:44:06.421Z,50.00
2023-11-10T15:45:06.460Z,50.00
2023-11-10T15:46:06.451Z,50.00
2023-11-10T15:47:06.472Z,50.00
2023-11-10T15:48:06.412Z,50.00
2023-11-10T15:49:06.390Z,22.01
2023-11-10T15:50:06.357Z,1.19
2023-11-10T15:51:06.353Z,0.00
2023-11-10T15:52:06.352Z,0.00
2023-11-10T15:53:06.340Z,0.00
2023-11-10T15:54:06.338Z,0.00
2023-11-10T15:55:06.354Z,0.00
2023-11-10T15:56:06.318Z,0.00
2023-11-10T15:57:06.294Z,0.00
2023-11-10T15:58:06.461Z,0.00
2023-11-10T15:59:06.329Z,0.00
2023-11-10T16:00:06.297Z,4.34
2023-11-10T16:01:06.468Z,15.68
2023-11-10T16:02:06.404Z,27.03
2023-11-10T16:03:06.487Z,38.90
2023-11-10T16:04:06.445Z,50.55
2023-11-10T16:05:06.481Z,50.00
2023-11-10T16:06:06.218Z,50.54
2023-11-10T16:07:06.221Z,50.00
2023-11-10T16:08:06.194Z,50.14
2023-11-10T16:09:06.213Z,50.00
2023-11-10T16:10:06.263Z,50.00
2023-11-10T16:11:06.187Z,50.79
2023-11-10T16:12:06.167Z,50.92
2023-11-10T16:13:06.199Z,51.49
2023-11-10T16:14:06.159Z,50.00
2023-11-10T16:15:06.147Z,50.65
2023-11-10T16:16:06.215Z,50.51
2023-11-10T16:17:06.173Z,49.99
2023-11-10T16:18:06.136Z,50.00
2023-11-10T16:19:06.140Z,50.29
2023-11-10T16:20:06.101Z,50.00
2023-11-10T16:21:06.109Z,50.99
2023-11-10T16:22:06.263Z,50.00
2023-11-10T16:23:06.076Z,50.13
2023-11-10T16:24:06.053Z,51.16
2023-11-10T16:25:06.160Z,50.00
2023-11-10T16:26:06.040Z,50.00
2023-11-10T16:27:06.053Z,51.02
2023-11-10T16:28:06.069Z,50.00
2023-11-10T16:29:06.032Z,51.36
2023-11-10T16:30:06.010Z,51.26
2023-11-10T16:31:06.149Z,50.32
2023-11-10T16:32:06.030Z,50.93
2023-11-10T16:33:06.008Z,50.13
2023-11-10T16:34:06.046Z,51.68
2023-11-10T16:35:05.973Z,51.00
2023-11-10T16:36:05.973Z,50.00
2023-11-10T16:37:06.045Z,50.00
2023-11-10T16:38:05.948Z,52.10
2023-11-10T16:39:05.931Z,50.00
2023-11-10T16:40:05.988Z,51.08
2023-11-10T16:41:05.946Z,50.57
2023-11-10T16:42:05.907Z,50.73
2023-11-10T16:43:05.936Z,51.61
2023-11-10T16:44:05.891Z,51.34
2023-11-10T16:45:05.887Z,50.20
2023-11-10T16:46:05.950Z,51.15
2023-11-10T16:47:05.973Z,51.67
2023-11-10T16:48:05.910Z,50.63
2023-11-10T16:49:05.896Z,52.06
2023-11-10T16:50:05.839Z,51.10
2023-11-10T16:51:05.849Z,51.65
2023-11-10T16:52:05.957Z,50.52
2023-11-10T16:53:05.810Z,51.34
2023-11-10T16:54:05.791Z,50.66
2023-11-10T16:55:05.877Z,50.54
2023-11-10T16:56:05.792Z,50.77
2023-11-10T16:57:05.771Z,50.66
2023-11-10T16:58:05.802Z,50.00
2023-11-10T16:59:05.775Z,50.78
2023-11-10T17:00:05.760Z,52.25
2023-11-10T17:01:05.760Z,50.30
2023-11-10T17:02:05.822Z,50.01
2023-11-10T17:03:05.841Z,50.21
2023-11-10T17:04:05.924Z,51.46
2023-11-10T17:05:05.780Z,50.44
2023-11-10T17:06:05.762Z,50.23
2023-11-10T17:07:05.738Z,51.14
2023-11-10T17:08:05.678Z,51.42
2023-11-10T17:09:05.750Z,50.54
2023-11-10T17:10:05.805Z,51.19
2023-11-10T17:11:05.662Z,51.99
2023-11-10T17:12:05.637Z,51.65
2023-11-10T17:13:05.666Z,51.70
2023-11-10T17:14:05.640Z,50.46
2023-11-10T17:15:05.615Z,51.16
2023-11-10T17:16:05.697Z,50.00
2023-11-10T17:17:05.598Z,50.00
2023-11-10T17:18:05.610Z,51.66
2023-11-10T17:19:05.620Z,50.95
2023-11-10T17:20:05.570Z,50.99
2023-11-10T17:21:05.569Z,50.92
2023-11-10T17:22:05.586Z,50.49
2023-11-10T17:23:05.544Z,51.48
2023-11-10T17:24:05.549Z,50.00
2023-11-10T17:25:05.545Z,51.50
2023-11-10T17:26:05.522Z,50.02
2023-11-10T17:27:05.537Z,51.87
2023-11-10T17:28:05.573Z,50.39
2023-11-10T17:29:05.503Z,50.76
2023-11-10T17:30:05.503Z,51.94
2023-11-10T17:31:05.495Z,50.00
2023-11-10T17:32:05.540Z,51.35
2023-11-10T17:33:05.559Z,50.29
2023-11-10T17:34:05.480Z,51.82
2023-11-10T17:35:05.474Z,52.54
2023-11-10T17:36:05.437Z,53.57
2023-11-10T17:37:05.449Z,53.47
2023-11-10T17:38:05.406Z,52.99
2023-11-10T17:39:05.455Z,52.07
2023-11-10T17:40:05.463Z,50.85
2023-11-10T17:41:05.392Z,52.43
2023-11-10T17:42:05.396Z,50.74
2023-11-10T17:43:05.396Z,50.38
2023-11-10T17:44:05.369Z,51.55
2023-11-10T17:45:05.361Z,53.63
2023-11-10T17:46:05.444Z,53.52
2023-11-10T17:47:05.403Z,51.60
2023-11-10T17:48:05.361Z,51.54
2023-11-10T17:49:05.385Z,51.06
2023-11-10T17:50:05.313Z,51.23
2023-11-10T17:51:05.574Z,53.90
2023-11-10T17:52:05.406Z,51.01
2023-11-10T17:53:05.293Z,50.69
2023-11-10T17:54:05.277Z,52.44
2023-11-10T17:55:05.284Z,51.24
2023-11-10T17:56:05.251Z,50.38
2023-11-10T17:57:05.270Z,52.13
2023-11-10T17:58:05.291Z,51.01
2023-11-10T17:59:05.244Z,54.09
2023-11-10T18:00:05.223Z,50.94
2023-11-10T18:01:05.292Z,53.17
2023-11-10T18:02:05.231Z,51.70
2023-11-10T18:03:05.239Z,54.37
2023-11-10T18:04:05.344Z,52.58
2023-11-10T18:05:05.284Z,51.43
2023-11-10T18:06:06.098Z,51.52
2023-11-10T18:07:05.165Z,53.33
2023-11-10T18:08:05.142Z,51.48
2023-11-10T18:09:05.146Z,52.36
2023-11-10T18:10:05.158Z,52.94
2023-11-10T18:11:05.155Z,54.04
2023-11-10T18:12:05.110Z,52.65
2023-11-10T18:13:05.187Z,52.01
2023-11-10T18:14:05.091Z,53.57
2023-11-10T18:15:05.087Z,50.88
2023-11-10T18:16:05.144Z,51.71
2023-11-10T18:17:05.071Z,52.42
2023-11-10T18:18:05.120Z,50.98
2023-11-10T18:19:05.086Z,51.38
2023-11-10T18:20:05.037Z,54.59
2023-11-10T18:21:05.037Z,52.09
2023-11-10T18:22:05.071Z,51.79
2023-11-10T18:23:05.846Z,52.68
2023-11-10T18:24:05.025Z,51.44
2023-11-10T18:25:05.094Z,50.71
2023-11-10T18:26:04.991Z,55.11
2023-11-10T18:27:05.004Z,53.97
2023-11-10T18:28:05.023Z,54.61
2023-11-10T18:29:04.988Z,54.60
2023-11-10T18:30:05.152Z,51.62
2023-11-10T18:31:04.985Z,52.91
2023-11-10T18:32:04.929Z,51.50
2023-11-10T18:33:04.948Z,53.17
2023-11-10T18:34:04.956Z,53.04
2023-11-10T18:35:04.915Z,52.38
2023-11-10T18:36:04.922Z,52.90
2023-11-10T18:37:04.943Z,54.23
2023-11-10T18:38:04.878Z,52.83
2023-11-10T18:39:04.878Z,55.21
2023-11-10T18:40:04.876Z,54.21
2023-11-10T18:41:04.869Z,54.17
2023-11-10T18:42:04.850Z,51.63
2023-11-10T18:43:04.867Z,54.64
2023-11-10T18:44:04.838Z,52.94
2023-11-10T18:45:04.823Z,55.43
2023-11-10T18:46:04.902Z,54.49
2023-11-10T18:47:04.804Z,56.33
2023-11-10T18:48:04.798Z,55.23
2023-11-10T18:49:04.825Z,53.35
2023-11-10T18:50:04.777Z,55.85
2023-11-10T18:51:04.768Z,50.73
2023-11-10T18:52:04.820Z,54.99
2023-11-10T18:53:04.764Z,53.94
2023-11-10T18:54:04.748Z,53.06
2023-11-10T18:55:04.878Z,52.56
2023-11-10T18:56:04.734Z,52.87
2023-11-10T18:57:04.725Z,52.89
2023-11-10T18:58:04.736Z,53.43
2023-11-10T18:59:04.722Z,55.14
2023-11-10T19:00:04.690Z,54.14
2023-11-10T19:01:04.768Z,51.66
2023-11-10T19:02:04.683Z,55.40
2023-11-10T19:03:04.743Z,56.00
2023-11-10T19:04:04.690Z,56.13
2023-11-10T19:05:04.693Z,54.36
2023-11-10T19:06:04.639Z,54.55
2023-11-10T19:07:04.702Z,54.29
2023-11-10T19:08:04.617Z,53.66
2023-11-10T19:09:04.611Z,52.53
2023-11-10T19:10:04.679Z,53.45
2023-11-10T19:11:04.600Z,55.05
2023-11-10T19:12:04.604Z,55.50
2023-11-10T19:13:04.647Z,56.34
2023-11-10T19:14:04.562Z,53.77
2023-11-10T19:15:04.577Z,56.76
2023-11-10T19:16:04.589Z,53.85
2023-11-10T19:17:04.639Z,54.71
2023-11-10T19:18:04.654Z,53.51
2023-11-10T19:19:04.558Z,53.76
2023-11-10T19:20:04.839Z,53.73
2023-11-10T19:21:04.499Z,54.20
2023-11-10T19:22:04.510Z,55.54
2023-11-10T19:23:04.499Z,51.49
2023-11-10T19:24:04.486Z,55.82
2023-11-10T19:25:04.673Z,52.18
2023-11-10T19:26:04.473Z,50.99
2023-11-10T19:27:04.461Z,52.77
2023-11-10T19:28:04.500Z,55.03
2023-11-10T19:29:04.433Z,50.00
2023-11-10T19:30:04.437Z,53.57
2023-11-10T19:31:04.426Z,50.80
2023-11-10T19:32:04.417Z,52.81
2023-11-10T19:33:04.510Z,51.22
2023-11-10T19:34:04.414Z,54.74
2023-11-10T19:35:04.412Z,54.81
2023-11-10T19:36:04.399Z,52.62
2023-11-10T19:37:04.433Z,50.78
2023-11-10T19:38:04.389Z,53.38
2023-11-10T19:39:04.351Z,55.64
2023-11-10T19:40:04.398Z,55.25
2023-11-10T19:41:04.328Z,55.48
2023-11-10T19:42:04.335Z,51.80
2023-11-10T19:43:04.378Z,54.58
2023-11-10T19:44:04.314Z,53.10
2023-11-10T19:45:04.303Z,55.31
2023-11-10T19:46:04.326Z,51.47
2023-11-10T19:47:04.283Z,55.43
2023-11-10T19:48:04.311Z,54.57
2023-11-10T19:49:04.329Z,54.77
2023-11-10T19:50:04.262Z,55.68
2023-11-10T19:52:22.746Z,54.59
2023-11-10T19:53:04.265Z,54.72
2023-11-10T19:55:04.224Z,54.74
2023-11-10T19:56:04.210Z,54.72
2023-11-10T19:57:04.209Z,55.32
2023-11-10T19:58:04.215Z,55.41
2023-11-10T20:01:04.158Z,54.83
2023-11-10T20:02:04.230Z,55.20
2023-11-10T20:03:04.200Z,55.36
2023-11-10T20:04:04.139Z,53.58
2023-11-10T20:05:04.132Z,58.28
2023-11-10T20:06:04.156Z,55.38
2023-11-10T20:07:04.111Z,52.59
2023-11-10T20:08:04.117Z,53.73
2023-11-10T20:09:04.149Z,54.11
2023-11-10T20:10:04.136Z,56.26
2023-11-10T20:11:04.081Z,54.94
2023-11-10T20:12:04.074Z,54.36
2023-11-10T20:13:04.072Z,52.89
2023-11-10T20:14:04.192Z,55.54
2023-11-10T20:15:04.141Z,54.23
2023-11-10T20:16:05.594Z,54.25
2023-11-10T20:17:04.023Z,54.33
2023-11-10T20:18:04.197Z,54.46
2023-11-10T20:19:04.004Z,54.33
2023-11-10T20:20:04.009Z,56.93
2023-11-10T20:21:04.002Z,55.56
2023-11-10T20:22:03.991Z,55.58
2023-11-10T20:23:03.964Z,53.87
2023-11-10T20:24:03.993Z,53.88
2023-11-10T20:25:04.215Z,54.09
2023-11-10T20:26:03.955Z,54.40
2023-11-10T20:27:04.037Z,54.17
2023-11-10T20:28:03.947Z,55.53
2023-11-10T20:29:03.928Z,55.24
2023-11-10T20:30:03.946Z,52.06
2023-11-10T20:31:04.041Z,53.28
2023-11-10T20:32:05.602Z,54.26
2023-11-10T20:33:03.970Z,54.77
2023-11-10T20:34:03.878Z,55.18
2023-11-10T20:35:03.870Z,54.13
2023-11-10T20:36:04.046Z,53.82
2023-11-10T20:37:03.863Z,52.91
2023-11-10T20:38:03.945Z,53.94
2023-11-10T20:39:03.896Z,53.47
2023-11-10T20:40:03.818Z,58.13
2023-11-10T20:41:06.635Z,54.31
2023-11-10T20:42:03.833Z,54.47
2023-11-10T20:43:03.793Z,54.81
2023-11-10T20:44:03.796Z,55.05
2023-11-10T20:45:03.812Z,55.70
2023-11-10T20:46:03.908Z,53.67
2023-11-10T20:47:03.769Z,53.68
2023-11-10T20:48:03.833Z,53.72
2023-11-10T20:49:03.756Z,53.47
2023-11-10T20:50:03.746Z,51.56
2023-11-10T20:51:03.761Z,53.96
2023-11-10T20:52:03.719Z,54.84
2023-11-10T20:53:03.718Z,55.71
2023-11-10T20:54:03.760Z,54.17
2023-11-10T20:55:03.823Z,55.27
2023-11-10T20:56:03.684Z,53.45
2023-11-10T20:57:03.674Z,54.74
2023-11-10T20:58:03.682Z,52.33
2023-11-10T20:59:03.654Z,52.53
2023-11-10T21:00:03.728Z,52.80
2023-11-10T21:01:03.634Z,54.97
2023-11-10T21:02:03.653Z,52.82
2023-11-10T21:03:03.728Z,52.84
2023-11-10T21:04:03.737Z,56.65
2023-11-10T21:05:03.600Z,53.87
2023-11-10T21:06:03.613Z,56.44
2023-11-10T21:07:03.586Z,54.63
2023-11-10T21:08:03.581Z,53.79
2023-11-10T21:09:03.575Z,51.53
2023-11-10T21:10:03.599Z,52.36
2023-11-10T21:11:03.546Z,56.49
2023-11-10T21:12:03.577Z,54.50
2023-11-10T21:13:03.542Z,54.18
2023-11-10T21:14:03.549Z,54.78
2023-11-10T21:15:03.523Z,54.03
2023-11-10T21:16:03.531Z,54.77
2023-11-10T21:17:10.585Z,53.98
2023-11-10T21:18:03.585Z,54.18
2023-11-10T21:19:03.488Z,54.29
2023-11-10T21:20:03.510Z,55.21
2023-11-10T21:21:03.471Z,54.37
2023-11-10T21:22:03.513Z,55.81
2023-11-10T21:23:03.445Z,57.02
2023-11-10T21:24:03.499Z,55.60
2023-11-10T21:25:03.439Z,54.68
2023-11-10T21:26:03.430Z,53.04
2023-11-10T21:27:03.431Z,55.71
2023-11-10T21:28:03.411Z,55.44
2023-11-10T21:29:03.431Z,55.33
2023-11-10T21:30:03.432Z,53.76
2023-11-10T21:31:03.390Z,54.07
2023-11-10T21:32:03.524Z,54.73
2023-11-10T21:33:03.485Z,52.08
2023-11-10T21:34:03.472Z,54.70
2023-11-10T21:35:03.370Z,53.61
2023-11-10T21:36:03.422Z,54.50
2023-11-10T21:37:03.341Z,52.28
2023-11-10T21:38:05.402Z,52.58
2023-11-10T21:39:03.330Z,55.91
2023-11-10T21:40:03.293Z,52.70
2023-11-10T21:41:03.293Z,57.37
2023-11-10T21:42:03.370Z,54.98
2023-11-10T21:43:03.267Z,54.54
2023-11-10T21:44:03.288Z,53.92
2023-11-10T21:45:03.296Z,54.62
2023-11-10T21:46:03.268Z,54.97
2023-11-10T21:47:03.234Z,55.14
2023-11-10T21:48:03.501Z,54.55
2023-11-10T21:49:03.231Z,55.18
2023-11-10T21:50:03.212Z,55.32
2023-11-10T21:51:03.231Z,51.91
2023-11-10T21:52:03.199Z,52.01
2023-11-10T21:53:03.208Z,55.02
2023-11-10T21:54:03.305Z,53.43
2023-11-10T21:55:03.163Z,53.18
2023-11-10T21:56:03.171Z,52.68
2023-11-10T21:57:03.174Z,52.36
2023-11-10T21:58:03.142Z,53.42
2023-11-10T21:59:03.156Z,52.75
2023-11-10T22:00:03.267Z,52.62
2023-11-10T22:01:03.123Z,53.34
2023-11-10T22:02:03.139Z,54.33
2023-11-10T22:03:03.218Z,52.65
2023-11-10T22:04:03.138Z,52.67
2023-11-10T22:05:03.101Z,54.29
2023-11-10T22:06:03.106Z,54.80
2023-11-10T22:07:03.056Z,55.05
2023-11-10T22:08:03.059Z,55.46
2023-11-10T22:09:03.077Z,55.17
2023-11-10T22:10:03.049Z,54.39
2023-11-10T22:11:03.019Z,50.56
2023-11-10T22:12:04.964Z,54.79
2023-11-10T22:13:03.004Z,50.61
2023-11-10T22:14:03.006Z,53.75
2023-11-10T22:15:03.010Z,53.43
2023-11-10T22:16:02.983Z,54.70
2023-11-10T22:17:02.995Z,53.88
2023-11-10T22:18:05.133Z,54.79
2023-11-10T22:19:02.974Z,54.80
2023-11-10T22:20:02.959Z,53.95
2023-11-10T22:21:02.966Z,53.44
2023-11-10T22:22:02.944Z,52.25
2023-11-10T22:23:02.926Z,54.08
2023-11-10T22:24:03.009Z,53.87
2023-11-10T22:25:02.934Z,54.21
2023-11-10T22:26:03.061Z,53.01
2023-11-10T22:27:02.927Z,51.42
2023-11-10T22:28:02.881Z,54.66
2023-11-10T22:29:02.862Z,54.30
2023-11-10T22:30:02.883Z,53.73
2023-11-10T22:31:02.877Z,52.30
2023-11-10T22:32:02.849Z,54.18
2023-11-10T22:33:03.021Z,53.43
2023-11-10T22:34:02.841Z,54.23
2023-11-10T22:35:02.827Z,52.95
2023-11-10T22:36:02.833Z,54.88
2023-11-10T22:37:02.808Z,52.79
2023-11-10T22:38:02.792Z,53.40
2023-11-10T22:39:02.816Z,52.43
2023-11-10T22:40:02.855Z,52.76
2023-11-10T22:41:02.768Z,50.00
2023-11-10T22:42:02.799Z,53.60
2023-11-10T22:43:02.744Z,52.27
2023-11-10T22:44:02.744Z,52.84
2023-11-10T22:45:02.748Z,52.67
2023-11-10T22:46:02.815Z,53.30
2023-11-10T22:47:02.722Z,52.55
2023-11-10T22:48:02.828Z,51.99
2023-11-10T22:49:02.704Z,52.67
2023-11-10T22:50:02.797Z,53.39
2023-11-10T22:51:02.740Z,53.36
2023-11-10T22:52:02.678Z,54.57
2023-11-10T22:53:02.648Z,54.12
2023-11-10T22:54:02.773Z,53.27
2023-11-10T22:55:02.647Z,52.74
2023-11-10T22:56:02.653Z,55.00
2023-11-10T22:57:02.640Z,53.90
2023-11-10T22:58:02.635Z,53.56
2023-11-10T22:59:02.608Z,53.71
2023-11-10T23:00:02.890Z,53.04
2023-11-10T23:01:02.584Z,53.07
2023-11-10T23:02:02.664Z,54.59
2023-11-10T23:03:02.783Z,53.88
2023-11-10T23:04:02.765Z,53.40
2023-11-10T23:05:02.559Z,53.94
2023-11-10T23:06:02.579Z,54.14
2023-11-10T23:07:02.533Z,52.77
2023-11-10T23:08:02.530Z,53.23
2023-11-10T23:09:02.563Z,51.92
2023-11-10T23:10:02.511Z,53.47
2023-11-10T23:11:02.513Z,52.99
2023-11-10T23:12:02.517Z,53.87
2023-11-10T23:13:02.493Z,52.27
2023-11-10T23:14:02.475Z,52.43
2023-11-10T23:15:02.507Z,51.58
2023-11-10T23:16:02.481Z,53.73
2023-11-10T23:17:02.487Z,52.85
2023-11-10T23:18:02.584Z,55.44
2023-11-10T23:19:02.436Z,54.02
2023-11-10T23:20:02.453Z,52.22
2023-11-10T23:21:02.475Z,54.70
2023-11-10T23:22:02.445Z,54.35
2023-11-10T23:23:02.397Z,53.04
2023-11-10T23:24:02.476Z,52.89
2023-11-10T23:25:02.380Z,50.32
2023-11-10T23:26:02.375Z,55.50
2023-11-10T23:27:02.372Z,53.45
2023-11-10T23:28:02.366Z,52.54
2023-11-10T23:29:02.368Z,53.38
2023-11-10T23:30:02.354Z,52.48
2023-11-10T23:31:02.367Z,52.55
2023-11-10T23:32:02.321Z,52.34
2023-11-10T23:33:02.461Z,53.62
2023-11-10T23:34:02.300Z,51.38
2023-11-10T23:35:02.354Z,53.59
2023-11-10T23:36:02.496Z,51.99
2023-11-10T23:37:02.279Z,52.13
2023-11-10T23:38:02.294Z,53.69
2023-11-10T23:39:02.287Z,52.59
2023-11-10T23:40:02.268Z,52.48
2023-11-10T23:41:02.251Z,53.16
2023-11-10T23:42:02.290Z,52.04
2023-11-10T23:43:02.234Z,54.10
2023-11-10T23:44:02.229Z,51.39
2023-11-10T23:45:02.291Z,51.91
2023-11-10T23:46:02.208Z,52.44
2023-11-10T23:47:02.229Z,52.88
2023-11-10T23:48:02.351Z,55.17
2023-11-10T23:49:02.230Z,53.05
2023-11-10T23:50:02.179Z,53.52
2023-11-10T23:51:02.170Z,52.31
2023-11-10T23:52:02.152Z,54.82
2023-11-10T23:53:02.148Z,53.64
2023-11-10T23:54:02.156Z,53.51
2023-11-10T23:55:02.138Z,54.78
2023-11-10T23:56:11.536Z,52.76
2023-11-10T23:57:03.161Z,52.98
2023-11-10T23:58:02.108Z,53.10
2023-11-10T23:59:02.092Z,53.75
